Pangborn Memorial Airport
KEAT : now visible

Airfield :











YOU CAN JOIN US ON...

 
LOGIN :

Register | Disclaimer

   EN    FR    IT 

 









Legend :    VFR   Marginal VFR   IFR   Intensive IFR   Very Intensive IFR
Visi :
Ceiling :
>= 8 km
>= 3000ft
5 to 8 km
1000 to 3000 ft
1500m to 5 km
500 to 1000 ft
800 to 1500m
200 to 500 ft
< 800m
< 200 ft
Symbols :   Thunderstorms  Fog  Heavy snow  Heavy precipitations  Wind > 20 kt







- Airport Elevation : 1249 ft


KEAT - Pangborn Memorial

CURRENT METAR :
  • 211155Z AUTO 29004KT 10SM CLR 03/M02 A3005 RMK AO2 SLP180 T00331017 10072 20022 52001

EXPIRED METARs :
  • 211055Z AUTO 28006KT 10SM CLR 03/M02 A3005 RMK AO2 SLP179 T00281017
  • 210955Z AUTO 29009KT 10SM CLR 04/M01 A3005 RMK AO2 SLP180 T00441011
  • 210855Z AUTO 29006KT 10SM CLR 04/M01 A3005 RMK AO2 SLP180 T00391011 53007

TAF KEAT
Valid from the 21 at 12:00 until the 22 at 12:00 UTC


211131Z 2112/2212 30006KT P6SM FEW120 SCT250
FM212100 17005KT P6SM SCT100 BKN200
FM220300 30009KT P6SM SCT080 BKN180
KZSE FIR / North America



MET'MAP, your aeronautical weather chart ! - Copyright ORBIFLY December 2007 - Disclaimer

ORBIFLY MET'MAP TEAM :

Programming & Development : Alexandra Zaïnal
Concept & Development : Baudouin d'Aumeries
Co-Development & Prog : Marc-Olivier Méhu
Technical & hardware support : Manuel Goepfert

Contact : metmap@orbifly.com




SOURCES & CREDITS :

   NOAA       Earth
Advisory